KFKN/FKN METAR and TAF weather

Enter ICAO airport designator
Station Type Date Time Source
KFKN METAR 2021/07/26 17:15 UTC NOAA

KFKN 261715Z AUTO 20006KT 10SM CLR 29/23 A2997 RMK AO2 T02850229


Station Type Date Time Source
KFKN Decoded METAR 2021/07/26 17:15 UTC NOAA

Franklin / J B Rose, VA, United States (KFKN) 36-42N 076-54W
Jul 26, 2021 - 01:15 PM EDT / 2021.07.26 1715 UTC
Wind: from the SSW (200 degrees) at 7 MPH (6 KT):0
Visibility: 10 mile(s):0
Sky conditions: clear
Temperature: 83.3 F (28.5 C)
Dew Point: 73.2 F (22.9 C)
Relative Humidity: 71%
Pressure (altimeter): 29.97 in. Hg (1014 hPa)
ob: KFKN 261715Z AUTO 20006KT 10SM CLR 29/23 A2997 RMK AO2 T02850229
cycle: 17

Station Type Date Time Source
KFKN TAF UTC NOAA

Error!

Example: see airport list